sensor_id;sensor_type;location;lat;lon;timestamp;P1;durP1;ratioP1;P2;durP2;ratioP2
31974;SDS011;18500;43.618;1.474;2022-10-31T00:02:00;986.08;;;902.85;;
31974;SDS011;18500;43.618;1.474;2022-10-31T00:04:25;1023.92;;;932.25;;
31974;SDS011;18500;43.618;1.474;2022-10-31T00:06:51;1031.45;;;937.70;;
31974;SDS011;18500;43.618;1.474;2022-10-31T00:09:17;1023.60;;;930.95;;
31974;SDS011;18500;43.618;1.474;2022-10-31T00:11:42;1021.85;;;932.65;;
31974;SDS011;18500;43.618;1.474;2022-10-31T00:14:08;993.60;;;908.55;;
31974;SDS011;18500;43.618;1.474;2022-10-31T00:16:34;1002.75;;;916.70;;
31974;SDS011;18500;43.618;1.474;2022-10-31T00:19:00;983.63;;;901.08;;
31974;SDS011;18500;43.618;1.474;2022-10-31T00:21:27;996.35;;;911.58;;
31974;SDS011;18500;43.618;1.474;2022-10-31T00:23:54;974.28;;;893.08;;
31974;SDS011;18500;43.618;1.474;2022-10-31T00:26:19;960.80;;;882.10;;
31974;SDS011;18500;43.618;1.474;2022-10-31T00:28:45;988.35;;;906.63;;
31974;SDS011;18500;43.618;1.474;2022-10-31T00:31:12;998.47;;;913.83;;
31974;SDS011;18500;43.618;1.474;2022-10-31T00:33:39;684.08;;;632.90;;
31974;SDS011;18500;43.618;1.474;2022-10-31T00:36:05;595.13;;;552.70;;
31974;SDS011;18500;43.618;1.474;2022-10-31T00:38:33;544.78;;;508.10;;
31974;SDS011;18500;43.618;1.474;2022-10-31T00:40:58;640.88;;;594.33;;
31974;SDS011;18500;43.618;1.474;2022-10-31T00:43:24;536.80;;;498.60;;
31974;SDS011;18500;43.618;1.474;2022-10-31T00:45:49;552.75;;;516.38;;
31974;SDS011;18500;43.618;1.474;2022-10-31T00:48:15;503.23;;;468.23;;
31974;SDS011;18500;43.618;1.474;2022-10-31T00:50:41;595.65;;;545.45;;
31974;SDS011;18500;43.618;1.474;2022-10-31T00:53:07;444.58;;;412.90;;
31974;SDS011;18500;43.618;1.474;2022-10-31T00:55:33;629.92;;;585.30;;
31974;SDS011;18500;43.618;1.474;2022-10-31T00:57:58;657.42;;;603.80;;
31974;SDS011;18500;43.618;1.474;2022-10-31T01:00:24;465.00;;;432.45;;
31974;SDS011;18500;43.618;1.474;2022-10-31T01:02:50;512.20;;;477.25;;
31974;SDS011;18500;43.618;1.474;2022-10-31T01:05:15;590.78;;;548.05;;
31974;SDS011;18500;43.618;1.474;2022-10-31T01:07:41;535.85;;;498.95;;
31974;SDS011;18500;43.618;1.474;2022-10-31T01:10:07;686.67;;;636.30;;
31974;SDS011;18500;43.618;1.474;2022-10-31T01:12:40;538.33;;;499.92;;
31974;SDS011;18500;43.618;1.474;2022-10-31T01:15:09;537.35;;;500.35;;
31974;SDS011;18500;43.618;1.474;2022-10-31T01:17:36;526.50;;;489.33;;
31974;SDS011;18500;43.618;1.474;2022-10-31T01:20:03;559.72;;;520.17;;
31974;SDS011;18500;43.618;1.474;2022-10-31T01:22:30;534.13;;;497.27;;
31974;SDS011;18500;43.618;1.474;2022-10-31T01:24:55;519.95;;;484.08;;
31974;SDS011;18500;43.618;1.474;2022-10-31T01:27:21;507.58;;;472.88;;
31974;SDS011;18500;43.618;1.474;2022-10-31T01:29:47;483.63;;;451.38;;
31974;SDS011;18500;43.618;1.474;2022-10-31T01:32:13;544.40;;;507.00;;
31974;SDS011;18500;43.618;1.474;2022-10-31T01:34:38;538.03;;;501.17;;
31974;SDS011;18500;43.618;1.474;2022-10-31T01:37:04;494.67;;;461.92;;
31974;SDS011;18500;43.618;1.474;2022-10-31T01:39:29;529.40;;;493.90;;
31974;SDS011;18500;43.618;1.474;2022-10-31T01:41:55;510.73;;;475.52;;
31974;SDS011;18500;43.618;1.474;2022-10-31T01:49:20;552.15;;;513.95;;
31974;SDS011;18500;43.618;1.474;2022-10-31T01:51:51;647.43;;;597.80;;
31974;SDS011;18500;43.618;1.474;2022-10-31T01:54:22;534.63;;;498.58;;
31974;SDS011;18500;43.618;1.474;2022-10-31T01:56:52;671.05;;;621.55;;
31974;SDS011;18500;43.618;1.474;2022-10-31T01:59:20;519.75;;;483.60;;
31974;SDS011;18500;43.618;1.474;2022-10-31T02:01:47;530.10;;;494.42;;
31974;SDS011;18500;43.618;1.474;2022-10-31T02:04:15;563.38;;;524.92;;
31974;SDS011;18500;43.618;1.474;2022-10-31T02:06:54;580.45;;;541.15;;
31974;SDS011;18500;43.618;1.474;2022-10-31T02:09:20;554.92;;;517.42;;
31974;SDS011;18500;43.618;1.474;2022-10-31T02:11:52;545.40;;;508.02;;
31974;SDS011;18500;43.618;1.474;2022-10-31T02:14:22;468.65;;;437.85;;
31974;SDS011;18500;43.618;1.474;2022-10-31T02:16:49;408.98;;;382.17;;
31974;SDS011;18500;43.618;1.474;2022-10-31T02:19:17;423.60;;;395.92;;
31974;SDS011;18500;43.618;1.474;2022-10-31T02:33:45;461.23;;;430.15;;
31974;SDS011;18500;43.618;1.474;2022-10-31T02:52:22;600.72;;;558.75;;
31974;SDS011;18500;43.618;1.474;2022-10-31T02:54:50;534.47;;;498.70;;
31974;SDS011;18500;43.618;1.474;2022-10-31T02:57:18;475.05;;;443.13;;
31974;SDS011;18500;43.618;1.474;2022-10-31T02:59:50;494.63;;;460.90;;
31974;SDS011;18500;43.618;1.474;2022-10-31T03:05:11;483.58;;;452.13;;
31974;SDS011;18500;43.618;1.474;2022-10-31T03:08:26;514.60;;;479.40;;
31974;SDS011;18500;43.618;1.474;2022-10-31T03:19:06;542.78;;;506.90;;
31974;SDS011;18500;43.618;1.474;2022-10-31T03:21:45;507.85;;;474.88;;
31974;SDS011;18500;43.618;1.474;2022-10-31T03:24:17;496.30;;;464.27;;
31974;SDS011;18500;43.618;1.474;2022-10-31T03:26:46;407.58;;;381.35;;
31974;SDS011;18500;43.618;1.474;2022-10-31T03:29:16;427.73;;;400.80;;
31974;SDS011;18500;43.618;1.474;2022-10-31T03:31:49;395.73;;;370.25;;
31974;SDS011;18500;43.618;1.474;2022-10-31T03:34:19;544.17;;;507.00;;
31974;SDS011;18500;43.618;1.474;2022-10-31T03:36:46;427.52;;;399.80;;
31974;SDS011;18500;43.618;1.474;2022-10-31T03:39:15;412.20;;;385.83;;
31974;SDS011;18500;43.618;1.474;2022-10-31T03:41:46;492.00;;;459.38;;
31974;SDS011;18500;43.618;1.474;2022-10-31T03:44:17;463.08;;;432.70;;
31974;SDS011;18500;43.618;1.474;2022-10-31T03:46:46;484.50;;;452.70;;
31974;SDS011;18500;43.618;1.474;2022-10-31T03:49:12;447.63;;;418.52;;
31974;SDS011;18500;43.618;1.474;2022-10-31T03:51:39;435.95;;;407.83;;
31974;SDS011;18500;43.618;1.474;2022-10-31T03:56:55;451.98;;;423.05;;
31974;SDS011;18500;43.618;1.474;2022-10-31T03:59:28;468.25;;;438.25;;
31974;SDS011;18500;43.618;1.474;2022-10-31T04:02:07;496.90;;;464.65;;
31974;SDS011;18500;43.618;1.474;2022-10-31T04:04:40;486.63;;;455.48;;
31974;SDS011;18500;43.618;1.474;2022-10-31T04:07:09;471.13;;;441.35;;
31974;SDS011;18500;43.618;1.474;2022-10-31T04:09:36;468.65;;;437.90;;
31974;SDS011;18500;43.618;1.474;2022-10-31T04:12:06;500.52;;;468.38;;
31974;SDS011;18500;43.618;1.474;2022-10-31T04:14:34;456.48;;;427.33;;
31974;SDS011;18500;43.618;1.474;2022-10-31T04:17:03;480.75;;;449.58;;
31974;SDS011;18500;43.618;1.474;2022-10-31T04:19:32;467.98;;;438.02;;
31974;SDS011;18500;43.618;1.474;2022-10-31T04:21:58;425.52;;;398.30;;
31974;SDS011;18500;43.618;1.474;2022-10-31T04:24:24;466.73;;;436.42;;
31974;SDS011;18500;43.618;1.474;2022-10-31T04:26:50;490.08;;;458.13;;
31974;SDS011;18500;43.618;1.474;2022-10-31T04:29:15;506.48;;;473.10;;
31974;SDS011;18500;43.618;1.474;2022-10-31T04:31:41;456.20;;;426.85;;
31974;SDS011;18500;43.618;1.474;2022-10-31T04:34:06;457.65;;;427.95;;
31974;SDS011;18500;43.618;1.474;2022-10-31T04:36:32;442.10;;;413.52;;
31974;SDS011;18500;43.618;1.474;2022-10-31T04:38:58;441.52;;;412.67;;
31974;SDS011;18500;43.618;1.474;2022-10-31T04:41:23;455.42;;;425.92;;
31974;SDS011;18500;43.618;1.474;2022-10-31T04:43:49;442.75;;;414.58;;
31974;SDS011;18500;43.618;1.474;2022-10-31T04:46:15;473.95;;;443.10;;
31974;SDS011;18500;43.618;1.474;2022-10-31T04:48:40;624.63;;;580.50;;
31974;SDS011;18500;43.618;1.474;2022-10-31T04:51:06;553.67;;;516.65;;
31974;SDS011;18500;43.618;1.474;2022-10-31T04:53:32;538.17;;;502.73;;
31974;SDS011;18500;43.618;1.474;2022-10-31T04:55:58;530.10;;;494.40;;
31974;SDS011;18500;43.618;1.474;2022-10-31T04:58:25;573.92;;;534.85;;
31974;SDS011;18500;43.618;1.474;2022-10-31T05:00:52;611.17;;;570.08;;
31974;SDS011;18500;43.618;1.474;2022-10-31T05:03:18;672.05;;;625.33;;
31974;SDS011;18500;43.618;1.474;2022-10-31T05:05:44;718.03;;;667.17;;
31974;SDS011;18500;43.618;1.474;2022-10-31T05:08:09;686.17;;;638.15;;
31974;SDS011;18500;43.618;1.474;2022-10-31T05:10:35;632.63;;;588.30;;
31974;SDS011;18500;43.618;1.474;2022-10-31T05:13:02;587.45;;;547.10;;
31974;SDS011;18500;43.618;1.474;2022-10-31T05:15:28;611.88;;;569.70;;
31974;SDS011;18500;43.618;1.474;2022-10-31T05:17:54;629.90;;;586.38;;
31974;SDS011;18500;43.618;1.474;2022-10-31T05:20:22;625.10;;;581.78;;
31974;SDS011;18500;43.618;1.474;2022-10-31T05:22:50;593.80;;;553.65;;
31974;SDS011;18500;43.618;1.474;2022-10-31T05:25:18;617.67;;;575.00;;
31974;SDS011;18500;43.618;1.474;2022-10-31T05:27:46;635.90;;;591.17;;
31974;SDS011;18500;43.618;1.474;2022-10-31T05:30:13;619.17;;;576.15;;
31974;SDS011;18500;43.618;1.474;2022-10-31T05:32:44;646.30;;;600.90;;
31974;SDS011;18500;43.618;1.474;2022-10-31T05:35:13;641.67;;;596.85;;
31974;SDS011;18500;43.618;1.474;2022-10-31T05:37:40;626.53;;;583.78;;
31974;SDS011;18500;43.618;1.474;2022-10-31T05:40:06;640.65;;;595.55;;
31974;SDS011;18500;43.618;1.474;2022-10-31T05:42:33;636.85;;;592.55;;
31974;SDS011;18500;43.618;1.474;2022-10-31T05:44:59;626.97;;;583.15;;
31974;SDS011;18500;43.618;1.474;2022-10-31T05:47:25;626.72;;;583.92;;
31974;SDS011;18500;43.618;1.474;2022-10-31T05:49:50;652.55;;;606.22;;
31974;SDS011;18500;43.618;1.474;2022-10-31T05:52:17;639.88;;;594.83;;
31974;SDS011;18500;43.618;1.474;2022-10-31T05:54:42;661.05;;;613.28;;
31974;SDS011;18500;43.618;1.474;2022-10-31T05:57:08;643.03;;;598.35;;
31974;SDS011;18500;43.618;1.474;2022-10-31T05:59:34;651.25;;;605.83;;
31974;SDS011;18500;43.618;1.474;2022-10-31T06:01:59;611.03;;;568.53;;
31974;SDS011;18500;43.618;1.474;2022-10-31T06:04:25;598.00;;;556.20;;
31974;SDS011;18500;43.618;1.474;2022-10-31T06:06:51;604.67;;;563.08;;
31974;SDS011;18500;43.618;1.474;2022-10-31T06:09:16;633.03;;;588.78;;
31974;SDS011;18500;43.618;1.474;2022-10-31T06:11:42;568.80;;;529.00;;
31974;SDS011;18500;43.618;1.474;2022-10-31T06:14:07;613.95;;;572.13;;
31974;SDS011;18500;43.618;1.474;2022-10-31T06:16:33;636.10;;;592.38;;
31974;SDS011;18500;43.618;1.474;2022-10-31T06:18:59;610.15;;;569.00;;
31974;SDS011;18500;43.618;1.474;2022-10-31T06:21:24;554.15;;;516.50;;
31974;SDS011;18500;43.618;1.474;2022-10-31T06:23:50;588.97;;;549.58;;
31974;SDS011;18500;43.618;1.474;2022-10-31T06:26:16;581.35;;;542.30;;
31974;SDS011;18500;43.618;1.474;2022-10-31T06:28:42;547.03;;;509.58;;
31974;SDS011;18500;43.618;1.474;2022-10-31T06:31:07;549.78;;;513.28;;
31974;SDS011;18500;43.618;1.474;2022-10-31T06:33:33;555.78;;;517.03;;
31974;SDS011;18500;43.618;1.474;2022-10-31T06:35:59;574.45;;;535.05;;
31974;SDS011;18500;43.618;1.474;2022-10-31T06:38:25;519.33;;;483.85;;
31974;SDS011;18500;43.618;1.474;2022-10-31T06:40:52;547.00;;;510.27;;
31974;SDS011;18500;43.618;1.474;2022-10-31T06:43:18;545.90;;;508.00;;
31974;SDS011;18500;43.618;1.474;2022-10-31T06:45:44;573.40;;;534.50;;
31974;SDS011;18500;43.618;1.474;2022-10-31T06:48:10;567.50;;;528.17;;
31974;SDS011;18500;43.618;1.474;2022-10-31T06:50:36;624.92;;;582.03;;
31974;SDS011;18500;43.618;1.474;2022-10-31T06:53:01;659.88;;;612.90;;
31974;SDS011;18500;43.618;1.474;2022-10-31T06:55:27;607.58;;;564.60;;
31974;SDS011;18500;43.618;1.474;2022-10-31T06:57:54;618.65;;;576.10;;
31974;SDS011;18500;43.618;1.474;2022-10-31T07:00:21;616.03;;;573.22;;
31974;SDS011;18500;43.618;1.474;2022-10-31T07:02:57;607.55;;;565.28;;
31974;SDS011;18500;43.618;1.474;2022-10-31T07:05:26;647.17;;;601.15;;
31974;SDS011;18500;43.618;1.474;2022-10-31T07:07:57;645.13;;;600.22;;
31974;SDS011;18500;43.618;1.474;2022-10-31T07:10:26;619.58;;;575.78;;
31974;SDS011;18500;43.618;1.474;2022-10-31T07:12:54;596.22;;;554.17;;
31974;SDS011;18500;43.618;1.474;2022-10-31T07:15:21;626.85;;;582.58;;
31974;SDS011;18500;43.618;1.474;2022-10-31T07:17:47;649.25;;;602.17;;
31974;SDS011;18500;43.618;1.474;2022-10-31T07:20:13;657.83;;;611.08;;
31974;SDS011;18500;43.618;1.474;2022-10-31T07:22:38;703.17;;;652.20;;
31974;SDS011;18500;43.618;1.474;2022-10-31T07:25:04;673.35;;;625.83;;
31974;SDS011;18500;43.618;1.474;2022-10-31T07:27:40;679.90;;;630.63;;
31974;SDS011;18500;43.618;1.474;2022-10-31T07:30:07;745.50;;;690.55;;
31974;SDS011;18500;43.618;1.474;2022-10-31T07:32:37;717.55;;;665.25;;
31974;SDS011;18500;43.618;1.474;2022-10-31T07:35:04;674.88;;;625.67;;
31974;SDS011;18500;43.618;1.474;2022-10-31T07:37:31;725.58;;;672.20;;
31974;SDS011;18500;43.618;1.474;2022-10-31T07:39:57;671.75;;;622.67;;
31974;SDS011;18500;43.618;1.474;2022-10-31T07:42:22;682.97;;;633.22;;
31974;SDS011;18500;43.618;1.474;2022-10-31T07:44:48;691.03;;;640.95;;
31974;SDS011;18500;43.618;1.474;2022-10-31T07:47:13;691.92;;;643.70;;
31974;SDS011;18500;43.618;1.474;2022-10-31T07:49:39;729.00;;;676.10;;
31974;SDS011;18500;43.618;1.474;2022-10-31T07:52:05;630.63;;;586.75;;
31974;SDS011;18500;43.618;1.474;2022-10-31T07:54:30;622.20;;;578.00;;
31974;SDS011;18500;43.618;1.474;2022-10-31T07:56:56;659.17;;;612.05;;
31974;SDS011;18500;43.618;1.474;2022-10-31T07:59:21;623.70;;;580.67;;
31974;SDS011;18500;43.618;1.474;2022-10-31T08:01:47;624.28;;;579.85;;
31974;SDS011;18500;43.618;1.474;2022-10-31T08:04:13;659.17;;;611.47;;
31974;SDS011;18500;43.618;1.474;2022-10-31T08:06:38;633.35;;;588.92;;
31974;SDS011;18500;43.618;1.474;2022-10-31T08:09:04;611.45;;;568.30;;
31974;SDS011;18500;43.618;1.474;2022-10-31T08:11:29;586.03;;;545.20;;
31974;SDS011;18500;43.618;1.474;2022-10-31T08:13:55;565.78;;;525.50;;
31974;SDS011;18500;43.618;1.474;2022-10-31T08:16:21;583.67;;;543.28;;
31974;SDS011;18500;43.618;1.474;2022-10-31T08:18:46;588.53;;;548.00;;
31974;SDS011;18500;43.618;1.474;2022-10-31T08:21:12;542.13;;;505.73;;
31974;SDS011;18500;43.618;1.474;2022-10-31T08:23:38;521.22;;;486.50;;
31974;SDS011;18500;43.618;1.474;2022-10-31T08:26:03;535.90;;;499.60;;
31974;SDS011;18500;43.618;1.474;2022-10-31T08:28:31;498.25;;;464.88;;
31974;SDS011;18500;43.618;1.474;2022-10-31T08:30:57;479.83;;;446.92;;
31974;SDS011;18500;43.618;1.474;2022-10-31T08:33:23;547.90;;;510.58;;
31974;SDS011;18500;43.618;1.474;2022-10-31T08:35:49;548.95;;;512.50;;
31974;SDS011;18500;43.618;1.474;2022-10-31T08:38:14;974.30;;;894.38;;
31974;SDS011;18500;43.618;1.474;2022-10-31T08:40:40;1044.55;;;953.28;;
31974;SDS011;18500;43.618;1.474;2022-10-31T08:43:10;1032.90;;;942.80;;
31974;SDS011;18500;43.618;1.474;2022-10-31T08:45:37;1086.18;;;986.50;;
31974;SDS011;18500;43.618;1.474;2022-10-31T08:48:04;1141.63;;;999.90;;
31974;SDS011;18500;43.618;1.474;2022-10-31T08:50:32;1264.38;;;999.90;;
31974;SDS011;18500;43.618;1.474;2022-10-31T08:53:00;1307.22;;;999.90;;
31974;SDS011;18500;43.618;1.474;2022-10-31T08:55:27;1113.15;;;998.95;;
31974;SDS011;18500;43.618;1.474;2022-10-31T08:57:56;1102.45;;;988.58;;
31974;SDS011;18500;43.618;1.474;2022-10-31T09:00:22;1066.03;;;961.17;;
31974;SDS011;18500;43.618;1.474;2022-10-31T09:02:54;1044.18;;;945.05;;
31974;SDS011;18500;43.618;1.474;2022-10-31T09:07:46;1226.20;;;999.90;;
31974;SDS011;18500;43.618;1.474;2022-10-31T09:10:11;1303.53;;;999.90;;
31974;SDS011;18500;43.618;1.474;2022-10-31T09:12:37;1547.40;;;999.90;;
31974;SDS011;18500;43.618;1.474;2022-10-31T09:15:03;1641.05;;;999.90;;
31974;SDS011;18500;43.618;1.474;2022-10-31T09:17:31;1210.60;;;999.90;;
31974;SDS011;18500;43.618;1.474;2022-10-31T09:19:57;1225.00;;;999.90;;
31974;SDS011;18500;43.618;1.474;2022-10-31T09:22:22;1150.18;;;999.90;;
31974;SDS011;18500;43.618;1.474;2022-10-31T09:24:48;1095.05;;;994.15;;
31974;SDS011;18500;43.618;1.474;2022-10-31T09:27:14;1114.68;;;998.40;;
31974;SDS011;18500;43.618;1.474;2022-10-31T09:29:39;1036.25;;;948.55;;
31974;SDS011;18500;43.618;1.474;2022-10-31T09:32:05;1065.82;;;971.83;;
31974;SDS011;18500;43.618;1.474;2022-10-31T09:34:31;938.10;;;859.67;;
31974;SDS011;18500;43.618;1.474;2022-10-31T09:36:56;1457.95;;;999.90;;
31974;SDS011;18500;43.618;1.474;2022-10-31T09:39:22;1614.35;;;999.90;;
31974;SDS011;18500;43.618;1.474;2022-10-31T09:45:05;1431.93;;;999.90;;
31974;SDS011;18500;43.618;1.474;2022-10-31T09:47:24;1430.43;;;999.90;;
31974;SDS011;18500;43.618;1.474;2022-10-31T09:50:14;1132.85;;;993.10;;
31974;SDS011;18500;43.618;1.474;2022-10-31T09:52:54;1653.47;;;999.90;;
31974;SDS011;18500;43.618;1.474;2022-10-31T09:55:31;1206.88;;;999.90;;
31974;SDS011;18500;43.618;1.474;2022-10-31T10:00:28;1790.40;;;999.90;;
31974;SDS011;18500;43.618;1.474;2022-10-31T10:03:01;1142.03;;;999.90;;
31974;SDS011;18500;43.618;1.474;2022-10-31T10:05:52;1031.78;;;934.25;;
31974;SDS011;18500;43.618;1.474;2022-10-31T10:08:23;1171.82;;;961.65;;
31974;SDS011;18500;43.618;1.474;2022-10-31T10:11:04;1599.63;;;999.90;;
31974;SDS011;18500;43.618;1.474;2022-10-31T10:16:53;1623.50;;;999.90;;
31974;SDS011;18500;43.618;1.474;2022-10-31T10:19:40;1970.15;;;999.90;;
31974;SDS011;18500;43.618;1.474;2022-10-31T10:25:21;1999.90;;;999.90;;
31974;SDS011;18500;43.618;1.474;2022-10-31T10:30:42;1668.72;;;999.90;;
31974;SDS011;18500;43.618;1.474;2022-10-31T10:33:31;1690.20;;;999.90;;
31974;SDS011;18500;43.618;1.474;2022-10-31T10:36:16;1609.70;;;999.90;;
31974;SDS011;18500;43.618;1.474;2022-10-31T10:39:00;1999.90;;;999.90;;
31974;SDS011;18500;43.618;1.474;2022-10-31T10:41:32;1999.90;;;999.90;;
31974;SDS011;18500;43.618;1.474;2022-10-31T10:43:58;1912.22;;;999.90;;
31974;SDS011;18500;43.618;1.474;2022-10-31T10:46:40;1733.45;;;999.90;;
31974;SDS011;18500;43.618;1.474;2022-10-31T10:49:53;1598.97;;;999.90;;
31974;SDS011;18500;43.618;1.474;2022-10-31T10:55:23;1564.55;;;999.90;;
31974;SDS011;18500;43.618;1.474;2022-10-31T11:00:23;1623.85;;;999.90;;
31974;SDS011;18500;43.618;1.474;2022-10-31T11:02:53;1789.63;;;999.90;;
31974;SDS011;18500;43.618;1.474;2022-10-31T11:05:39;1845.72;;;999.90;;
31974;SDS011;18500;43.618;1.474;2022-10-31T11:08:11;1966.57;;;999.90;;
31974;SDS011;18500;43.618;1.474;2022-10-31T11:11:02;1712.63;;;999.90;;
31974;SDS011;18500;43.618;1.474;2022-10-31T11:13:40;1971.05;;;999.90;;
31974;SDS011;18500;43.618;1.474;2022-10-31T11:18:39;1999.90;;;999.90;;
31974;SDS011;18500;43.618;1.474;2022-10-31T11:21:24;1999.90;;;999.90;;
31974;SDS011;18500;43.618;1.474;2022-10-31T11:26:51;1951.90;;;999.90;;
31974;SDS011;18500;43.618;1.474;2022-10-31T11:29:27;1892.05;;;999.90;;
31974;SDS011;18500;43.618;1.474;2022-10-31T11:31:53;1995.95;;;999.90;;
31974;SDS011;18500;43.618;1.474;2022-10-31T11:34:25;1999.90;;;999.90;;
31974;SDS011;18500;43.618;1.474;2022-10-31T11:36:51;1999.90;;;999.90;;
31974;SDS011;18500;43.618;1.474;2022-10-31T11:39:19;1999.90;;;999.90;;
31974;SDS011;18500;43.618;1.474;2022-10-31T11:41:47;1999.90;;;999.90;;
31974;SDS011;18500;43.618;1.474;2022-10-31T11:44:19;1800.38;;;999.90;;
31974;SDS011;18500;43.618;1.474;2022-10-31T11:46:50;1261.45;;;999.90;;
31974;SDS011;18500;43.618;1.474;2022-10-31T11:49:20;1921.38;;;999.90;;
31974;SDS011;18500;43.618;1.474;2022-10-31T11:51:51;1999.90;;;999.90;;
31974;SDS011;18500;43.618;1.474;2022-10-31T11:54:41;1999.90;;;999.90;;
31974;SDS011;18500;43.618;1.474;2022-10-31T11:57:24;1999.90;;;999.90;;
31974;SDS011;18500;43.618;1.474;2022-10-31T12:00:04;1999.90;;;999.90;;
31974;SDS011;18500;43.618;1.474;2022-10-31T12:02:44;1999.90;;;999.90;;
31974;SDS011;18500;43.618;1.474;2022-10-31T12:05:21;1999.90;;;999.90;;
31974;SDS011;18500;43.618;1.474;2022-10-31T12:07:54;1999.90;;;999.90;;
31974;SDS011;18500;43.618;1.474;2022-10-31T12:10:20;1999.90;;;999.90;;
31974;SDS011;18500;43.618;1.474;2022-10-31T12:15:38;1941.18;;;999.90;;
31974;SDS011;18500;43.618;1.474;2022-10-31T12:21:04;1999.90;;;999.90;;
31974;SDS011;18500;43.618;1.474;2022-10-31T12:24:07;1999.90;;;999.90;;
31974;SDS011;18500;43.618;1.474;2022-10-31T12:40:59;1999.90;;;999.90;;
31974;SDS011;18500;43.618;1.474;2022-10-31T12:46:20;1999.90;;;999.90;;
31974;SDS011;18500;43.618;1.474;2022-10-31T12:49:27;1999.90;;;999.90;;
31974;SDS011;18500;43.618;1.474;2022-10-31T12:57:42;1999.90;;;999.90;;
31974;SDS011;18500;43.618;1.474;2022-10-31T13:00:16;1999.90;;;999.90;;
31974;SDS011;18500;43.618;1.474;2022-10-31T13:05:37;1999.90;;;999.90;;
31974;SDS011;18500;43.618;1.474;2022-10-31T13:15:51;1999.90;;;999.90;;
31974;SDS011;18500;43.618;1.474;2022-10-31T13:18:27;1999.90;;;999.90;;
31974;SDS011;18500;43.618;1.474;2022-10-31T13:20:57;1999.90;;;999.90;;
31974;SDS011;18500;43.618;1.474;2022-10-31T13:23:34;1999.90;;;999.90;;
31974;SDS011;18500;43.618;1.474;2022-10-31T13:29:03;1999.90;;;999.90;;
31974;SDS011;18500;43.618;1.474;2022-10-31T13:31:30;1999.90;;;999.90;;
31974;SDS011;18500;43.618;1.474;2022-10-31T13:33:57;1999.90;;;999.90;;
31974;SDS011;18500;43.618;1.474;2022-10-31T13:46:40;1999.90;;;999.90;;
31974;SDS011;18500;43.618;1.474;2022-10-31T13:54:39;1999.90;;;999.90;;
31974;SDS011;18500;43.618;1.474;2022-10-31T14:00:27;1999.90;;;999.90;;
31974;SDS011;18500;43.618;1.474;2022-10-31T14:02:48;1999.90;;;999.90;;
31974;SDS011;18500;43.618;1.474;2022-10-31T14:05:25;1999.90;;;999.90;;
31974;SDS011;18500;43.618;1.474;2022-10-31T14:07:53;1999.90;;;999.90;;
31974;SDS011;18500;43.618;1.474;2022-10-31T14:10:29;1999.90;;;999.90;;
31974;SDS011;18500;43.618;1.474;2022-10-31T14:13:03;1999.90;;;999.90;;
31974;SDS011;18500;43.618;1.474;2022-10-31T14:16:02;1999.90;;;999.90;;
31974;SDS011;18500;43.618;1.474;2022-10-31T14:18:34;1999.90;;;999.90;;
31974;SDS011;18500;43.618;1.474;2022-10-31T14:21:16;1999.90;;;999.90;;
31974;SDS011;18500;43.618;1.474;2022-10-31T14:23:53;1999.90;;;999.90;;
31974;SDS011;18500;43.618;1.474;2022-10-31T14:28:53;1999.90;;;999.90;;
31974;SDS011;18500;43.618;1.474;2022-10-31T14:33:52;1999.90;;;999.90;;
31974;SDS011;18500;43.618;1.474;2022-10-31T14:36:20;1999.90;;;999.90;;
31974;SDS011;18500;43.618;1.474;2022-10-31T14:44:14;1999.90;;;999.90;;
31974;SDS011;18500;43.618;1.474;2022-10-31T14:50:21;1999.90;;;999.90;;
31974;SDS011;18500;43.618;1.474;2022-10-31T14:53:08;1999.90;;;999.90;;
31974;SDS011;18500;43.618;1.474;2022-10-31T14:55:49;1999.90;;;999.90;;
31974;SDS011;18500;43.618;1.474;2022-10-31T14:58:22;1999.90;;;999.90;;
31974;SDS011;18500;43.618;1.474;2022-10-31T15:01:02;1999.57;;;999.90;;
31974;SDS011;18500;43.618;1.474;2022-10-31T15:03:33;1931.85;;;999.90;;
31974;SDS011;18500;43.618;1.474;2022-10-31T15:06:14;1826.07;;;999.90;;
31974;SDS011;18500;43.618;1.474;2022-10-31T15:08:46;1999.90;;;999.90;;
31974;SDS011;18500;43.618;1.474;2022-10-31T15:11:18;1837.07;;;999.90;;
31974;SDS011;18500;43.618;1.474;2022-10-31T15:13:49;1807.00;;;999.90;;
31974;SDS011;18500;43.618;1.474;2022-10-31T15:16:18;1789.10;;;999.90;;
31974;SDS011;18500;43.618;1.474;2022-10-31T15:18:54;1796.90;;;999.90;;
31974;SDS011;18500;43.618;1.474;2022-10-31T15:21:27;1814.53;;;999.90;;
31974;SDS011;18500;43.618;1.474;2022-10-31T15:23:54;1757.45;;;999.90;;
31974;SDS011;18500;43.618;1.474;2022-10-31T15:26:38;1791.40;;;999.90;;
31974;SDS011;18500;43.618;1.474;2022-10-31T15:29:12;1760.97;;;999.90;;
31974;SDS011;18500;43.618;1.474;2022-10-31T15:31:48;1777.30;;;999.90;;
31974;SDS011;18500;43.618;1.474;2022-10-31T15:34:26;1838.13;;;999.90;;
31974;SDS011;18500;43.618;1.474;2022-10-31T15:37:02;1800.55;;;999.90;;
31974;SDS011;18500;43.618;1.474;2022-10-31T15:39:28;1976.60;;;999.90;;
31974;SDS011;18500;43.618;1.474;2022-10-31T15:41:55;1999.90;;;999.90;;
31974;SDS011;18500;43.618;1.474;2022-10-31T15:44:29;1999.90;;;999.90;;
31974;SDS011;18500;43.618;1.474;2022-10-31T15:47:03;1999.90;;;999.90;;
31974;SDS011;18500;43.618;1.474;2022-10-31T15:49:41;1999.90;;;999.90;;
31974;SDS011;18500;43.618;1.474;2022-10-31T15:52:34;1999.90;;;999.90;;
31974;SDS011;18500;43.618;1.474;2022-10-31T15:57:38;1999.90;;;999.90;;
31974;SDS011;18500;43.618;1.474;2022-10-31T16:00:20;1999.90;;;999.90;;
31974;SDS011;18500;43.618;1.474;2022-10-31T16:02:46;1999.90;;;999.90;;
31974;SDS011;18500;43.618;1.474;2022-10-31T16:05:18;1999.90;;;999.90;;
31974;SDS011;18500;43.618;1.474;2022-10-31T16:07:48;1999.90;;;999.90;;
31974;SDS011;18500;43.618;1.474;2022-10-31T16:10:22;1999.90;;;999.90;;
31974;SDS011;18500;43.618;1.474;2022-10-31T16:12:50;1999.90;;;999.90;;
31974;SDS011;18500;43.618;1.474;2022-10-31T16:15:17;1999.90;;;999.90;;
31974;SDS011;18500;43.618;1.474;2022-10-31T16:17:45;1999.90;;;999.90;;
31974;SDS011;18500;43.618;1.474;2022-10-31T16:20:24;1999.90;;;999.90;;
31974;SDS011;18500;43.618;1.474;2022-10-31T16:22:52;1999.90;;;999.90;;
31974;SDS011;18500;43.618;1.474;2022-10-31T16:25:27;1999.90;;;999.90;;
31974;SDS011;18500;43.618;1.474;2022-10-31T16:28:01;1999.90;;;999.90;;
31974;SDS011;18500;43.618;1.474;2022-10-31T16:33:04;1999.90;;;999.90;;
31974;SDS011;18500;43.618;1.474;2022-10-31T16:35:45;1999.90;;;999.90;;
31974;SDS011;18500;43.618;1.474;2022-10-31T16:38:11;1999.90;;;999.90;;
31974;SDS011;18500;43.618;1.474;2022-10-31T16:40:40;1999.90;;;999.90;;
31974;SDS011;18500;43.618;1.474;2022-10-31T16:43:08;1999.90;;;999.90;;